Terminal Aerodrome Forecast
Issued by NWS

Home | Current Version | Previous Version | Text Only | Print | Product List | Glossary On
Versions: 1 2 3 4 5 6 7 8 9 10 11 12 13 14 15 16 17 18 19 20 21
000
FTPA31 PHFO 201700
TAFJRF
TAF
PHJR 201734Z 2018/2118 VRB03KT P6SM SKC
     FM202100 10009KT P6SM FEW030 SCT050
     FM210300 VRB04KT P6SM SCT035 SCT050
     FM210600 05003KT P6SM FEW035=

USA.gov is the U.S. government's official web portal to all federal, state and local government web resources and services.